sensor_id;sensor_type;location;lat;lon;timestamp;P1;durP1;ratioP1;P2;durP2;ratioP2
72674;SDS011;60752;53.962;9.614;2023-01-31T00:04:23;12.00;;;1.47;;
72674;SDS011;60752;53.962;9.614;2023-01-31T00:09:23;13.30;;;2.27;;
72674;SDS011;60752;53.962;9.614;2023-01-31T00:14:24;13.70;;;1.60;;
72674;SDS011;60752;53.962;9.614;2023-01-31T00:19:25;9.43;;;1.77;;
72674;SDS011;60752;53.962;9.614;2023-01-31T00:24:26;8.57;;;1.30;;
72674;SDS011;60752;53.962;9.614;2023-01-31T00:29:26;10.00;;;1.80;;
72674;SDS011;60752;53.962;9.614;2023-01-31T00:34:28;9.90;;;1.30;;
72674;SDS011;60752;53.962;9.614;2023-01-31T00:39:28;8.60;;;1.25;;
72674;SDS011;60752;53.962;9.614;2023-01-31T00:44:29;7.07;;;1.77;;
72674;SDS011;60752;53.962;9.614;2023-01-31T00:49:31;12.07;;;1.60;;
72674;SDS011;60752;53.962;9.614;2023-01-31T00:54:31;2.70;;;0.77;;
72674;SDS011;60752;53.962;9.614;2023-01-31T00:59:31;12.97;;;1.50;;
72674;SDS011;60752;53.962;9.614;2023-01-31T01:04:33;7.40;;;1.23;;
72674;SDS011;60752;53.962;9.614;2023-01-31T01:09:34;5.30;;;1.23;;
72674;SDS011;60752;53.962;9.614;2023-01-31T01:14:34;5.23;;;1.20;;
72674;SDS011;60752;53.962;9.614;2023-01-31T01:19:36;7.60;;;1.37;;
72674;SDS011;60752;53.962;9.614;2023-01-31T01:24:36;7.13;;;1.17;;
72674;SDS011;60752;53.962;9.614;2023-01-31T01:29:37;4.27;;;1.10;;
72674;SDS011;60752;53.962;9.614;2023-01-31T01:34:39;6.17;;;1.30;;
72674;SDS011;60752;53.962;9.614;2023-01-31T01:39:39;5.40;;;1.40;;
72674;SDS011;60752;53.962;9.614;2023-01-31T01:44:44;7.50;;;1.33;;
72674;SDS011;60752;53.962;9.614;2023-01-31T01:49:50;7.57;;;0.93;;
72674;SDS011;60752;53.962;9.614;2023-01-31T01:54:54;11.20;;;1.40;;
72674;SDS011;60752;53.962;9.614;2023-01-31T02:00:00;12.40;;;1.57;;
72674;SDS011;60752;53.962;9.614;2023-01-31T02:05:08;13.65;;;1.67;;
72674;SDS011;60752;53.962;9.614;2023-01-31T02:10:12;7.82;;;1.50;;
72674;SDS011;60752;53.962;9.614;2023-01-31T02:15:16;6.33;;;1.70;;
72674;SDS011;60752;53.962;9.614;2023-01-31T02:37:32;6.60;;;1.17;;
72674;SDS011;60752;53.962;9.614;2023-01-31T02:42:42;6.77;;;1.67;;
72674;SDS011;60752;53.962;9.614;2023-01-31T02:47:56;9.43;;;1.70;;
72674;SDS011;60752;53.962;9.614;2023-01-31T02:53:07;6.45;;;1.40;;
72674;SDS011;60752;53.962;9.614;2023-01-31T02:58:12;6.57;;;1.20;;
72674;SDS011;60752;53.962;9.614;2023-01-31T03:03:19;16.83;;;1.33;;
72674;SDS011;60752;53.962;9.614;2023-01-31T03:08:21;6.75;;;1.65;;
72674;SDS011;60752;53.962;9.614;2023-01-31T03:13:29;6.90;;;1.70;;
72674;SDS011;60752;53.962;9.614;2023-01-31T03:18:39;6.83;;;1.60;;
72674;SDS011;60752;53.962;9.614;2023-01-31T03:23:44;18.67;;;1.83;;
72674;SDS011;60752;53.962;9.614;2023-01-31T03:28:49;9.48;;;1.40;;
72674;SDS011;60752;53.962;9.614;2023-01-31T03:33:54;8.43;;;0.93;;
72674;SDS011;60752;53.962;9.614;2023-01-31T03:39:04;8.33;;;1.17;;
72674;SDS011;60752;53.962;9.614;2023-01-31T03:44:11;11.50;;;1.45;;
72674;SDS011;60752;53.962;9.614;2023-01-31T03:49:19;9.27;;;1.17;;
72674;SDS011;60752;53.962;9.614;2023-01-31T03:54:24;6.20;;;1.03;;
72674;SDS011;60752;53.962;9.614;2023-01-31T03:59:28;5.72;;;1.10;;
72674;SDS011;60752;53.962;9.614;2023-01-31T04:04:33;9.68;;;1.30;;
72674;SDS011;60752;53.962;9.614;2023-01-31T04:09:38;8.00;;;1.70;;
72674;SDS011;60752;53.962;9.614;2023-01-31T04:14:39;14.60;;;1.73;;
72674;SDS011;60752;53.962;9.614;2023-01-31T04:24:56;6.45;;;1.73;;
72674;SDS011;60752;53.962;9.614;2023-01-31T04:29:57;9.20;;;1.60;;
72674;SDS011;60752;53.962;9.614;2023-01-31T04:34:58;18.70;;;2.03;;
72674;SDS011;60752;53.962;9.614;2023-01-31T04:39:59;5.25;;;1.27;;
72674;SDS011;60752;53.962;9.614;2023-01-31T04:44:59;9.53;;;1.60;;
72674;SDS011;60752;53.962;9.614;2023-01-31T04:50:01;9.90;;;2.00;;
72674;SDS011;60752;53.962;9.614;2023-01-31T04:55:01;10.30;;;1.33;;
72674;SDS011;60752;53.962;9.614;2023-01-31T05:00:02;11.93;;;1.73;;
72674;SDS011;60752;53.962;9.614;2023-01-31T05:05:05;6.77;;;1.20;;
72674;SDS011;60752;53.962;9.614;2023-01-31T05:10:08;11.07;;;1.58;;
72674;SDS011;60752;53.962;9.614;2023-01-31T05:15:09;12.23;;;1.45;;
72674;SDS011;60752;53.962;9.614;2023-01-31T05:20:11;9.80;;;1.63;;
72674;SDS011;60752;53.962;9.614;2023-01-31T05:25:12;9.30;;;2.78;;
72674;SDS011;60752;53.962;9.614;2023-01-31T05:30:12;10.70;;;1.80;;
72674;SDS011;60752;53.962;9.614;2023-01-31T05:35:14;13.20;;;1.97;;
72674;SDS011;60752;53.962;9.614;2023-01-31T05:40:16;18.20;;;2.58;;
72674;SDS011;60752;53.962;9.614;2023-01-31T05:45:16;14.87;;;2.07;;
72674;SDS011;60752;53.962;9.614;2023-01-31T05:50:18;13.27;;;1.93;;
72674;SDS011;60752;53.962;9.614;2023-01-31T05:55:20;19.15;;;2.60;;
72674;SDS011;60752;53.962;9.614;2023-01-31T06:00:21;20.60;;;2.17;;
72674;SDS011;60752;53.962;9.614;2023-01-31T06:05:23;16.80;;;2.43;;
72674;SDS011;60752;53.962;9.614;2023-01-31T06:10:24;15.93;;;1.98;;
72674;SDS011;60752;53.962;9.614;2023-01-31T06:15:25;11.52;;;1.58;;
72674;SDS011;60752;53.962;9.614;2023-01-31T06:20:26;12.43;;;1.87;;
72674;SDS011;60752;53.962;9.614;2023-01-31T06:25:27;23.60;;;2.70;;
72674;SDS011;60752;53.962;9.614;2023-01-31T06:30:27;14.57;;;1.37;;
72674;SDS011;60752;53.962;9.614;2023-01-31T06:35:29;10.97;;;1.70;;
72674;SDS011;60752;53.962;9.614;2023-01-31T06:40:30;11.50;;;1.77;;
72674;SDS011;60752;53.962;9.614;2023-01-31T06:45:30;8.87;;;1.50;;
72674;SDS011;60752;53.962;9.614;2023-01-31T06:50:32;10.73;;;2.17;;
72674;SDS011;60752;53.962;9.614;2023-01-31T06:55:32;18.95;;;1.60;;
72674;SDS011;60752;53.962;9.614;2023-01-31T07:00:33;15.33;;;1.80;;
72674;SDS011;60752;53.962;9.614;2023-01-31T07:05:35;19.30;;;3.30;;
72674;SDS011;60752;53.962;9.614;2023-01-31T07:10:35;10.67;;;1.80;;
72674;SDS011;60752;53.962;9.614;2023-01-31T07:15:35;17.77;;;2.23;;
72674;SDS011;60752;53.962;9.614;2023-01-31T07:20:37;13.00;;;2.33;;
72674;SDS011;60752;53.962;9.614;2023-01-31T07:25:38;16.23;;;1.73;;
72674;SDS011;60752;53.962;9.614;2023-01-31T07:30:39;12.67;;;2.47;;
72674;SDS011;60752;53.962;9.614;2023-01-31T07:35:41;11.47;;;2.23;;
72674;SDS011;60752;53.962;9.614;2023-01-31T07:40:42;12.77;;;2.20;;
72674;SDS011;60752;53.962;9.614;2023-01-31T07:45:42;18.73;;;2.23;;
72674;SDS011;60752;53.962;9.614;2023-01-31T07:50:44;17.80;;;2.90;;
72674;SDS011;60752;53.962;9.614;2023-01-31T07:55:45;16.02;;;3.13;;
72674;SDS011;60752;53.962;9.614;2023-01-31T08:00:45;6.23;;;2.47;;
72674;SDS011;60752;53.962;9.614;2023-01-31T08:05:47;12.63;;;2.80;;
72674;SDS011;60752;53.962;9.614;2023-01-31T08:10:47;8.98;;;2.53;;
72674;SDS011;60752;53.962;9.614;2023-01-31T08:15:49;14.20;;;3.10;;
72674;SDS011;60752;53.962;9.614;2023-01-31T08:20:51;13.27;;;2.90;;
72674;SDS011;60752;53.962;9.614;2023-01-31T08:25:58;19.73;;;3.57;;
72674;SDS011;60752;53.962;9.614;2023-01-31T08:30:59;17.40;;;3.30;;
72674;SDS011;60752;53.962;9.614;2023-01-31T08:36:08;19.40;;;2.63;;
72674;SDS011;60752;53.962;9.614;2023-01-31T08:41:09;11.57;;;2.40;;
72674;SDS011;60752;53.962;9.614;2023-01-31T08:46:10;14.60;;;2.40;;
72674;SDS011;60752;53.962;9.614;2023-01-31T08:51:12;14.87;;;3.33;;
72674;SDS011;60752;53.962;9.614;2023-01-31T08:56:13;8.60;;;3.22;;
72674;SDS011;60752;53.962;9.614;2023-01-31T09:01:14;13.13;;;3.60;;
72674;SDS011;60752;53.962;9.614;2023-01-31T09:06:18;9.43;;;3.07;;
72674;SDS011;60752;53.962;9.614;2023-01-31T09:11:20;10.00;;;3.03;;
72674;SDS011;60752;53.962;9.614;2023-01-31T09:16:20;9.23;;;3.57;;
72674;SDS011;60752;53.962;9.614;2023-01-31T09:21:22;12.13;;;2.90;;
72674;SDS011;60752;53.962;9.614;2023-01-31T09:26:23;16.55;;;3.40;;
72674;SDS011;60752;53.962;9.614;2023-01-31T09:31:23;15.03;;;4.43;;
72674;SDS011;60752;53.962;9.614;2023-01-31T09:36:25;14.63;;;2.97;;
72674;SDS011;60752;53.962;9.614;2023-01-31T09:41:27;16.88;;;3.42;;
72674;SDS011;60752;53.962;9.614;2023-01-31T09:46:34;8.73;;;3.07;;
72674;SDS011;60752;53.962;9.614;2023-01-31T09:51:37;11.33;;;2.73;;
72674;SDS011;60752;53.962;9.614;2023-01-31T09:56:39;7.85;;;2.65;;
72674;SDS011;60752;53.962;9.614;2023-01-31T10:01:46;9.15;;;2.58;;
72674;SDS011;60752;53.962;9.614;2023-01-31T10:06:55;7.80;;;2.83;;
72674;SDS011;60752;53.962;9.614;2023-01-31T10:12:02;7.35;;;2.20;;
72674;SDS011;60752;53.962;9.614;2023-01-31T10:17:10;8.15;;;2.90;;
72674;SDS011;60752;53.962;9.614;2023-01-31T10:22:17;9.97;;;2.87;;
72674;SDS011;60752;53.962;9.614;2023-01-31T10:27:28;6.30;;;2.60;;
72674;SDS011;60752;53.962;9.614;2023-01-31T10:32:38;9.43;;;2.45;;
72674;SDS011;60752;53.962;9.614;2023-01-31T10:37:43;9.57;;;2.40;;
72674;SDS011;60752;53.962;9.614;2023-01-31T10:42:48;13.27;;;2.47;;
72674;SDS011;60752;53.962;9.614;2023-01-31T10:47:52;16.38;;;2.97;;
72674;SDS011;60752;53.962;9.614;2023-01-31T10:53:04;9.20;;;2.30;;
72674;SDS011;60752;53.962;9.614;2023-01-31T10:58:12;14.67;;;2.70;;
72674;SDS011;60752;53.962;9.614;2023-01-31T11:03:15;12.50;;;3.00;;
72674;SDS011;60752;53.962;9.614;2023-01-31T11:08:20;12.40;;;1.80;;
72674;SDS011;60752;53.962;9.614;2023-01-31T11:13:28;6.63;;;1.80;;
72674;SDS011;60752;53.962;9.614;2023-01-31T11:18:29;9.53;;;1.93;;
72674;SDS011;60752;53.962;9.614;2023-01-31T11:23:34;14.68;;;2.10;;
72674;SDS011;60752;53.962;9.614;2023-01-31T11:28:35;5.97;;;1.60;;
72674;SDS011;60752;53.962;9.614;2023-01-31T11:33:39;7.50;;;2.20;;
72674;SDS011;60752;53.962;9.614;2023-01-31T11:38:42;7.10;;;2.37;;
72674;SDS011;60752;53.962;9.614;2023-01-31T11:43:43;11.70;;;2.65;;
72674;SDS011;60752;53.962;9.614;2023-01-31T11:48:43;9.60;;;2.37;;
72674;SDS011;60752;53.962;9.614;2023-01-31T11:53:46;9.32;;;2.33;;
72674;SDS011;60752;53.962;9.614;2023-01-31T11:58:51;12.40;;;2.50;;
72674;SDS011;60752;53.962;9.614;2023-01-31T12:03:54;8.85;;;2.22;;
72674;SDS011;60752;53.962;9.614;2023-01-31T12:08:59;12.70;;;1.92;;
72674;SDS011;60752;53.962;9.614;2023-01-31T12:14:08;8.20;;;2.30;;
72674;SDS011;60752;53.962;9.614;2023-01-31T12:19:16;6.53;;;1.70;;
72674;SDS011;60752;53.962;9.614;2023-01-31T12:24:35;6.85;;;1.83;;
72674;SDS011;60752;53.962;9.614;2023-01-31T12:29:54;11.50;;;2.07;;
72674;SDS011;60752;53.962;9.614;2023-01-31T12:35:16;9.03;;;2.43;;
72674;SDS011;60752;53.962;9.614;2023-01-31T12:40:34;12.90;;;2.53;;
72674;SDS011;60752;53.962;9.614;2023-01-31T12:45:45;9.55;;;2.63;;
72674;SDS011;60752;53.962;9.614;2023-01-31T12:50:54;16.00;;;3.40;;
72674;SDS011;60752;53.962;9.614;2023-01-31T12:56:08;14.35;;;2.90;;
72674;SDS011;60752;53.962;9.614;2023-01-31T13:01:23;15.77;;;3.08;;
72674;SDS011;60752;53.962;9.614;2023-01-31T13:06:31;25.27;;;3.57;;
72674;SDS011;60752;53.962;9.614;2023-01-31T13:11:38;17.33;;;3.75;;
72674;SDS011;60752;53.962;9.614;2023-01-31T13:16:42;21.92;;;3.67;;
72674;SDS011;60752;53.962;9.614;2023-01-31T13:21:45;21.13;;;4.37;;
72674;SDS011;60752;53.962;9.614;2023-01-31T13:26:53;22.83;;;3.43;;
72674;SDS011;60752;53.962;9.614;2023-01-31T13:31:58;20.30;;;3.47;;
72674;SDS011;60752;53.962;9.614;2023-01-31T13:37:01;20.30;;;2.90;;
72674;SDS011;60752;53.962;9.614;2023-01-31T13:42:08;16.47;;;3.07;;
72674;SDS011;60752;53.962;9.614;2023-01-31T13:47:13;18.63;;;3.28;;
72674;SDS011;60752;53.962;9.614;2023-01-31T13:52:19;18.67;;;3.22;;
72674;SDS011;60752;53.962;9.614;2023-01-31T13:57:24;24.00;;;3.30;;
72674;SDS011;60752;53.962;9.614;2023-01-31T14:02:28;17.77;;;2.97;;
72674;SDS011;60752;53.962;9.614;2023-01-31T14:07:28;19.10;;;3.20;;
72674;SDS011;60752;53.962;9.614;2023-01-31T14:12:31;21.10;;;3.47;;
72674;SDS011;60752;53.962;9.614;2023-01-31T14:28:28;20.90;;;3.30;;
72674;SDS011;60752;53.962;9.614;2023-01-31T14:33:29;19.05;;;3.60;;
72674;SDS011;60752;53.962;9.614;2023-01-31T14:38:35;16.13;;;2.83;;
72674;SDS011;60752;53.962;9.614;2023-01-31T14:43:55;16.03;;;3.07;;
72674;SDS011;60752;53.962;9.614;2023-01-31T14:49:11;15.00;;;3.20;;
72674;SDS011;60752;53.962;9.614;2023-01-31T14:54:27;15.00;;;3.22;;
72674;SDS011;60752;53.962;9.614;2023-01-31T14:59:40;16.88;;;2.78;;
72674;SDS011;60752;53.962;9.614;2023-01-31T15:04:52;16.30;;;2.93;;
72674;SDS011;60752;53.962;9.614;2023-01-31T15:09:55;22.40;;;4.22;;
72674;SDS011;60752;53.962;9.614;2023-01-31T15:14:57;23.83;;;3.40;;
72674;SDS011;60752;53.962;9.614;2023-01-31T15:19:58;19.85;;;3.03;;
72674;SDS011;60752;53.962;9.614;2023-01-31T15:25:19;19.90;;;3.42;;
72674;SDS011;60752;53.962;9.614;2023-01-31T15:30:23;31.33;;;3.83;;
72674;SDS011;60752;53.962;9.614;2023-01-31T15:35:27;18.05;;;3.55;;
72674;SDS011;60752;53.962;9.614;2023-01-31T15:40:30;18.88;;;3.55;;
72674;SDS011;60752;53.962;9.614;2023-01-31T15:45:32;25.93;;;3.37;;
72674;SDS011;60752;53.962;9.614;2023-01-31T15:50:33;20.08;;;3.45;;
72674;SDS011;60752;53.962;9.614;2023-01-31T15:55:34;16.10;;;2.90;;
72674;SDS011;60752;53.962;9.614;2023-01-31T16:00:36;11.97;;;1.97;;
72674;SDS011;60752;53.962;9.614;2023-01-31T16:05:37;13.25;;;2.15;;
72674;SDS011;60752;53.962;9.614;2023-01-31T16:10:41;6.57;;;1.38;;
72674;SDS011;60752;53.962;9.614;2023-01-31T16:15:45;7.37;;;1.50;;
72674;SDS011;60752;53.962;9.614;2023-01-31T16:20:46;17.57;;;3.07;;
72674;SDS011;60752;53.962;9.614;2023-01-31T16:25:49;12.52;;;2.10;;
72674;SDS011;60752;53.962;9.614;2023-01-31T16:31:01;15.65;;;2.47;;
72674;SDS011;60752;53.962;9.614;2023-01-31T16:36:04;18.57;;;3.13;;
72674;SDS011;60752;53.962;9.614;2023-01-31T16:41:07;18.65;;;2.15;;
72674;SDS011;60752;53.962;9.614;2023-01-31T16:46:18;11.77;;;2.27;;
72674;SDS011;60752;53.962;9.614;2023-01-31T16:56:41;15.98;;;2.05;;
72674;SDS011;60752;53.962;9.614;2023-01-31T17:01:43;13.53;;;3.00;;
72674;SDS011;60752;53.962;9.614;2023-01-31T17:07:00;15.57;;;2.55;;
72674;SDS011;60752;53.962;9.614;2023-01-31T17:12:02;14.23;;;3.10;;
72674;SDS011;60752;53.962;9.614;2023-01-31T17:17:05;18.75;;;2.70;;
72674;SDS011;60752;53.962;9.614;2023-01-31T17:22:06;13.30;;;2.73;;
72674;SDS011;60752;53.962;9.614;2023-01-31T17:27:07;17.97;;;2.20;;
72674;SDS011;60752;53.962;9.614;2023-01-31T17:32:13;20.20;;;3.65;;
72674;SDS011;60752;53.962;9.614;2023-01-31T17:37:15;20.15;;;3.55;;
72674;SDS011;60752;53.962;9.614;2023-01-31T17:42:16;14.53;;;2.83;;
72674;SDS011;60752;53.962;9.614;2023-01-31T17:47:19;24.85;;;3.65;;
72674;SDS011;60752;53.962;9.614;2023-01-31T17:52:20;22.40;;;3.80;;
72674;SDS011;60752;53.962;9.614;2023-01-31T17:57:20;18.00;;;2.33;;
72674;SDS011;60752;53.962;9.614;2023-01-31T18:02:22;20.43;;;3.77;;
72674;SDS011;60752;53.962;9.614;2023-01-31T18:07:22;15.33;;;3.13;;
72674;SDS011;60752;53.962;9.614;2023-01-31T18:12:23;22.37;;;3.30;;
72674;SDS011;60752;53.962;9.614;2023-01-31T18:17:25;17.83;;;3.07;;
72674;SDS011;60752;53.962;9.614;2023-01-31T18:22:25;22.35;;;2.40;;
72674;SDS011;60752;53.962;9.614;2023-01-31T18:27:26;19.27;;;3.40;;
72674;SDS011;60752;53.962;9.614;2023-01-31T18:32:27;31.67;;;3.00;;
72674;SDS011;60752;53.962;9.614;2023-01-31T18:37:28;26.38;;;4.05;;
72674;SDS011;60752;53.962;9.614;2023-01-31T18:42:28;25.20;;;2.93;;
72674;SDS011;60752;53.962;9.614;2023-01-31T18:47:30;22.30;;;3.73;;
72674;SDS011;60752;53.962;9.614;2023-01-31T18:52:30;20.67;;;3.97;;
72674;SDS011;60752;53.962;9.614;2023-01-31T18:57:31;24.93;;;2.93;;
72674;SDS011;60752;53.962;9.614;2023-01-31T19:02:32;17.73;;;2.93;;
72674;SDS011;60752;53.962;9.614;2023-01-31T19:07:35;25.30;;;3.03;;
72674;SDS011;60752;53.962;9.614;2023-01-31T19:12:36;22.37;;;2.70;;
72674;SDS011;60752;53.962;9.614;2023-01-31T19:17:38;17.20;;;3.30;;
72674;SDS011;60752;53.962;9.614;2023-01-31T19:22:38;16.70;;;3.08;;
72674;SDS011;60752;53.962;9.614;2023-01-31T19:27:38;25.30;;;3.33;;
72674;SDS011;60752;53.962;9.614;2023-01-31T19:32:40;20.57;;;3.37;;
72674;SDS011;60752;53.962;9.614;2023-01-31T19:37:41;20.27;;;3.45;;
72674;SDS011;60752;53.962;9.614;2023-01-31T19:42:41;22.30;;;5.03;;
72674;SDS011;60752;53.962;9.614;2023-01-31T19:47:43;12.97;;;2.90;;
72674;SDS011;60752;53.962;9.614;2023-01-31T19:52:43;20.88;;;3.33;;
72674;SDS011;60752;53.962;9.614;2023-01-31T19:57:44;17.47;;;2.80;;
72674;SDS011;60752;53.962;9.614;2023-01-31T20:02:45;19.80;;;4.07;;
72674;SDS011;60752;53.962;9.614;2023-01-31T20:07:46;16.10;;;2.75;;
72674;SDS011;60752;53.962;9.614;2023-01-31T20:12:46;16.70;;;2.63;;
72674;SDS011;60752;53.962;9.614;2023-01-31T20:17:48;15.00;;;2.83;;
72674;SDS011;60752;53.962;9.614;2023-01-31T20:22:49;17.23;;;2.47;;
72674;SDS011;60752;53.962;9.614;2023-01-31T20:27:49;18.93;;;2.90;;
72674;SDS011;60752;53.962;9.614;2023-01-31T20:32:51;12.53;;;2.70;;
72674;SDS011;60752;53.962;9.614;2023-01-31T20:37:51;16.70;;;3.05;;
72674;SDS011;60752;53.962;9.614;2023-01-31T20:42:53;20.17;;;3.75;;
72674;SDS011;60752;53.962;9.614;2023-01-31T20:47:55;12.07;;;2.07;;
72674;SDS011;60752;53.962;9.614;2023-01-31T20:52:56;18.57;;;2.60;;
72674;SDS011;60752;53.962;9.614;2023-01-31T20:57:56;13.10;;;2.23;;
72674;SDS011;60752;53.962;9.614;2023-01-31T21:02:58;19.60;;;2.37;;
72674;SDS011;60752;53.962;9.614;2023-01-31T21:07:58;23.20;;;2.93;;
72674;SDS011;60752;53.962;9.614;2023-01-31T21:12:59;15.63;;;3.10;;
72674;SDS011;60752;53.962;9.614;2023-01-31T21:18:00;14.57;;;2.40;;
72674;SDS011;60752;53.962;9.614;2023-01-31T21:23:01;11.02;;;2.67;;
72674;SDS011;60752;53.962;9.614;2023-01-31T21:28:01;20.97;;;2.87;;
72674;SDS011;60752;53.962;9.614;2023-01-31T21:33:03;18.67;;;2.23;;
72674;SDS011;60752;53.962;9.614;2023-01-31T21:38:04;13.45;;;2.33;;
72674;SDS011;60752;53.962;9.614;2023-01-31T21:43:04;9.40;;;1.80;;
72674;SDS011;60752;53.962;9.614;2023-01-31T21:48:07;16.40;;;3.00;;
72674;SDS011;60752;53.962;9.614;2023-01-31T21:53:09;21.40;;;3.13;;
72674;SDS011;60752;53.962;9.614;2023-01-31T21:58:09;29.87;;;2.93;;
72674;SDS011;60752;53.962;9.614;2023-01-31T22:03:11;26.93;;;3.03;;
72674;SDS011;60752;53.962;9.614;2023-01-31T22:08:11;12.67;;;2.57;;
72674;SDS011;60752;53.962;9.614;2023-01-31T22:13:12;20.73;;;2.83;;
72674;SDS011;60752;53.962;9.614;2023-01-31T22:18:13;12.57;;;2.33;;
72674;SDS011;60752;53.962;9.614;2023-01-31T22:23:14;12.80;;;2.70;;
72674;SDS011;60752;53.962;9.614;2023-01-31T22:28:14;19.33;;;2.27;;
72674;SDS011;60752;53.962;9.614;2023-01-31T22:33:16;17.17;;;2.40;;
72674;SDS011;60752;53.962;9.614;2023-01-31T22:38:17;13.03;;;2.43;;
72674;SDS011;60752;53.962;9.614;2023-01-31T22:43:18;11.97;;;2.33;;
72674;SDS011;60752;53.962;9.614;2023-01-31T22:48:21;19.37;;;3.13;;
72674;SDS011;60752;53.962;9.614;2023-01-31T22:53:22;18.92;;;2.75;;
72674;SDS011;60752;53.962;9.614;2023-01-31T22:58:23;12.45;;;2.22;;
72674;SDS011;60752;53.962;9.614;2023-01-31T23:03:25;21.63;;;3.37;;
72674;SDS011;60752;53.962;9.614;2023-01-31T23:08:26;12.27;;;2.13;;
72674;SDS011;60752;53.962;9.614;2023-01-31T23:13:26;23.67;;;2.87;;
72674;SDS011;60752;53.962;9.614;2023-01-31T23:18:28;17.40;;;2.97;;
72674;SDS011;60752;53.962;9.614;2023-01-31T23:23:29;29.10;;;3.47;;
72674;SDS011;60752;53.962;9.614;2023-01-31T23:28:29;13.87;;;2.83;;
72674;SDS011;60752;53.962;9.614;2023-01-31T23:33:31;15.60;;;2.72;;
72674;SDS011;60752;53.962;9.614;2023-01-31T23:38:31;18.17;;;2.57;;
72674;SDS011;60752;53.962;9.614;2023-01-31T23:43:32;15.23;;;1.73;;
72674;SDS011;60752;53.962;9.614;2023-01-31T23:48:33;14.40;;;2.00;;
72674;SDS011;60752;53.962;9.614;2023-01-31T23:53:34;18.13;;;2.80;;
72674;SDS011;60752;53.962;9.614;2023-01-31T23:58:34;18.20;;;2.97;;
